New Lenox, IL

6:04 PM CDT on August 01, 2015 (GMT -0500)
Sanctuary Golf Course | | Change Station
CLOSE
Current Station
Personal Weather Station
Location: New Lenox, IL
Elevation: 633 ft
Nearby Weather Stations

Elev 633 ft 41.52 °N, 87.95 °W | Updated 4 minutes ago

Partly Cloudy
Partly Cloudy
82.5 °F
Feels Like 84 °F
N
10.0
Wind Variable Wind from SW
Gusts 10.0 mph

Today
High -- | Low -- °F
--% Chance of Precip.
Yesterday
High -- | Low -- °F
Precip. -- in
5:46 AM 8:09 PM
Full, 97% visible
Pressure 29.92 in
Visibility 10.0 miles
Clouds Scattered Clouds 6000 ft
Heat Index 84 °F
Dew Point 64 °F
Humidity 53%
Rainfall 0.00 in
Snow Depth Not available.
UV 2 out of 12
Pollen 8.00 out of 12
Air Quality Not available.
Flu Activity Not available.
METAR KLOT 012255Z AUTO 27010G18KT 10SM SCT060 28/15 A2992 RMK AO2 T02790149

More Conditions Fewer Conditions

Pressure 29.92 in
Visibility 10.0 miles
Clouds Scattered Clouds 6000 ft
Heat Index 84 °F
Dew Point 64 °F
Humidity 53%
Rainfall 0.00 in
Snow Depth Not available.
UV 2 out of 12
Pollen 8.00 out of 12
Air Quality Not available.
Flu Activity Not available.
METAR KLOT 012255Z AUTO 27010G18KT 10SM SCT060 28/15 A2992 RMK AO2 T02790149

More Conditions Fewer Conditions

10-Day Weather Forecast

×

Almanac

Astronomy

Aug. 01, 2015 Rise Set
Actual Time
Civil Twilight
Nautical Twilight
Astronomical Twilight
Moon
Length of Visible Light
Length of Day
Tomorrow will be .
, % of the Moon is Illuminated

Today's Extremes

State Highs State Lows

Community

WunderPhotos

Upload Photos

1,843,087 photos uploaded!

WunderBlogs® & News

Nearby

Air Quality

  Air Quality AQ Index Pollutant
Not available.

Snow Depth

Station Depth Elevation

Earthquake Activity

City Distance Mag. Time & Date
Minimum magnitude displayed is 2.5.

Coastal Water Temperatures

Place Temperature

Stations

Nearby Weather Stations

Station Location Temp. Windchill Dew Point Humidity Wind Precip. Elev Updated Type